Zaliv Vostok — A8RM6 — position and weather

sailwx.info

Track history (hours):
 
Tides and Currents Weather Stations Pressure Air Temp Water Temp Dewpoint Dewpoint Depression Visibility Wind Speed Wind Dir Waves Ship Positions

Zaliv Vostok

Last reported at 2017-Dec-29 13:17 UTC. Time now 2018-Jan-22 00:35 UTC.
Position S 32°35' E 152°56'.
Warning: this ship's position is 23 days out of date.

Length 244 m; draft 8.4 m.

Type: Tanker. MMSI: 636014127.

Date/timePositionNaut miles runAvg speedWind from/ knotsBaromVisibWave heightAir tempDewpointWater temp
2017-Dec-29 13:17S 32°35' E 152°56'2 7.8
2017-Dec-29 12:59S 32°37' E 152°55'4 7.8
2017-Dec-29 12:30S 32°40' E 152°53'4 8.7
2017-Dec-29 12:00S 32°43' E 152°50'510.1
2017-Dec-29 11:28S 32°47' E 152°45'511.0
2017-Dec-29 11:00S 32°51' E 152°41'510.9
2017-Dec-29 10:30S 32°55' E 152°37'1510.8
2017-Dec-29 09:05S 33°06' E 152°24'111.0
2017-Dec-29 09:00S 33°07' E 152°24'510.7
2017-Dec-29 08:30S 33°11' E 152°19'1210.8
2017-Dec-29 07:25S 33°20' E 152°10'510.9
2017-Dec-29 06:59S 33°23' E 152°06'510.9
2017-Dec-29 06:30S 33°27' E 152°02'611.2
2017-Dec-29 06:00S 33°31' E 151°58'611.2
2017-Dec-29 05:30S 33°35' E 151°53'611.3
2017-Dec-29 05:00S 33°39' E 151°48'611.3
2017-Dec-29 04:30S 33°43' E 151°43'611.4
2017-Dec-29 04:00S 33°48' E 151°39'611.4
2017-Dec-29 03:30S 33°52' E 151°34'511.0
2017-Dec-29 03:00S 33°56' E 151°29'  
Track history (hours):
 
Tides and Currents Weather Stations Pressure Air Temp Water Temp Dewpoint Dewpoint Depression Visibility Wind Speed Wind Dir Waves Ship Positions

Zaliv Vostok

Last reported at 2017-Dec-29 13:17 UTC. Time now 2018-Jan-22 00:35 UTC.
Position S 32°35' E 152°56'.
Warning: this ship's position is 23 days out of date.

Length 244 m; draft 8.4 m.

Type: Tanker. MMSI: 636014127.

Date/timePositionNaut miles runAvg speedWind from/ knotsBaromVisibWave heightAir tempDewpointWater temp
2017-Dec-29 13:17S 32°35' E 152°56'2 7.8
2017-Dec-29 12:59S 32°37' E 152°55'4 7.8
2017-Dec-29 12:30S 32°40' E 152°53'4 8.7
2017-Dec-29 12:00S 32°43' E 152°50'510.1
2017-Dec-29 11:28S 32°47' E 152°45'511.0
2017-Dec-29 11:00S 32°51' E 152°41'510.9
2017-Dec-29 10:30S 32°55' E 152°37'1510.8
2017-Dec-29 09:05S 33°06' E 152°24'111.0
2017-Dec-29 09:00S 33°07' E 152°24'510.7
2017-Dec-29 08:30S 33°11' E 152°19'1210.8
2017-Dec-29 07:25S 33°20' E 152°10'510.9
2017-Dec-29 06:59S 33°23' E 152°06'510.9
2017-Dec-29 06:30S 33°27' E 152°02'611.2
2017-Dec-29 06:00S 33°31' E 151°58'611.2
2017-Dec-29 05:30S 33°35' E 151°53'611.3
2017-Dec-29 05:00S 33°39' E 151°48'611.3
2017-Dec-29 04:30S 33°43' E 151°43'611.4
2017-Dec-29 04:00S 33°48' E 151°39'611.4
2017-Dec-29 03:30S 33°52' E 151°34'511.0
2017-Dec-29 03:00S 33°56' E 151°29'  

Dump ship's entire track history